sensor_id;sensor_type;location;lat;lon;timestamp;P1;durP1;ratioP1;P2;durP2;ratioP2
9288;SDS011;4683;50.864;12.086;2022-07-06T00:00:47;3.30;;;3.00;;
9288;SDS011;4683;50.864;12.086;2022-07-06T00:03:15;4.90;;;3.07;;
9288;SDS011;4683;50.864;12.086;2022-07-06T00:05:43;3.37;;;3.10;;
9288;SDS011;4683;50.864;12.086;2022-07-06T00:08:14;7.00;;;3.20;;
9288;SDS011;4683;50.864;12.086;2022-07-06T00:44:06;3.33;;;3.03;;
9288;SDS011;4683;50.864;12.086;2022-07-06T00:46:36;3.73;;;3.10;;
9288;SDS011;4683;50.864;12.086;2022-07-06T00:49:04;3.53;;;3.10;;
9288;SDS011;4683;50.864;12.086;2022-07-06T00:51:53;3.40;;;3.10;;
9288;SDS011;4683;50.864;12.086;2022-07-06T00:54:21;3.97;;;3.17;;
9288;SDS011;4683;50.864;12.086;2022-07-06T00:56:49;3.10;;;2.80;;
9288;SDS011;4683;50.864;12.086;2022-07-06T01:29:06;3.13;;;2.93;;
9288;SDS011;4683;50.864;12.086;2022-07-06T01:31:34;3.73;;;3.43;;
9288;SDS011;4683;50.864;12.086;2022-07-06T01:34:12;3.40;;;2.97;;
9288;SDS011;4683;50.864;12.086;2022-07-06T01:36:44;3.57;;;3.27;;
9288;SDS011;4683;50.864;12.086;2022-07-06T01:39:13;3.30;;;3.10;;
9288;SDS011;4683;50.864;12.086;2022-07-06T01:41:41;4.03;;;2.93;;
9288;SDS011;4683;50.864;12.086;2022-07-06T01:44:12;3.63;;;3.33;;
9288;SDS011;4683;50.864;12.086;2022-07-06T02:19:22;3.70;;;3.40;;
9288;SDS011;4683;50.864;12.086;2022-07-06T02:21:50;4.37;;;3.97;;
9288;SDS011;4683;50.864;12.086;2022-07-06T02:24:19;4.33;;;3.53;;
9288;SDS011;4683;50.864;12.086;2022-07-06T02:26:47;5.73;;;3.37;;
9288;SDS011;4683;50.864;12.086;2022-07-06T02:29:15;5.90;;;3.90;;
9288;SDS011;4683;50.864;12.086;2022-07-06T02:31:44;3.67;;;3.37;;
9288;SDS011;4683;50.864;12.086;2022-07-06T02:34:12;3.47;;;3.17;;
9288;SDS011;4683;50.864;12.086;2022-07-06T02:36:41;4.80;;;3.60;;
9288;SDS011;4683;50.864;12.086;2022-07-06T02:39:10;3.80;;;3.50;;
9288;SDS011;4683;50.864;12.086;2022-07-06T02:41:38;5.53;;;4.00;;
9288;SDS011;4683;50.864;12.086;2022-07-06T02:44:06;4.10;;;3.80;;
9288;SDS011;4683;50.864;12.086;2022-07-06T02:46:35;3.90;;;3.60;;
9288;SDS011;4683;50.864;12.086;2022-07-06T02:49:03;3.63;;;3.20;;
9288;SDS011;4683;50.864;12.086;2022-07-06T02:51:32;4.07;;;3.67;;
9288;SDS011;4683;50.864;12.086;2022-07-06T02:54:01;3.90;;;3.50;;
9288;SDS011;4683;50.864;12.086;2022-07-06T02:56:30;3.90;;;3.60;;
9288;SDS011;4683;50.864;12.086;2022-07-06T02:58:58;3.70;;;3.37;;
9288;SDS011;4683;50.864;12.086;2022-07-06T03:01:26;3.70;;;3.40;;
9288;SDS011;4683;50.864;12.086;2022-07-06T03:03:54;4.97;;;3.37;;
9288;SDS011;4683;50.864;12.086;2022-07-06T03:06:23;4.20;;;3.90;;
9288;SDS011;4683;50.864;12.086;2022-07-06T03:08:52;3.80;;;3.50;;
9288;SDS011;4683;50.864;12.086;2022-07-06T03:11:21;5.73;;;3.43;;
9288;SDS011;4683;50.864;12.086;2022-07-06T03:13:52;3.80;;;3.50;;
9288;SDS011;4683;50.864;12.086;2022-07-06T03:16:21;4.50;;;3.47;;
9288;SDS011;4683;50.864;12.086;2022-07-06T03:18:50;3.93;;;3.43;;
9288;SDS011;4683;50.864;12.086;2022-07-06T03:21:18;4.17;;;2.93;;
9288;SDS011;4683;50.864;12.086;2022-07-06T03:23:47;3.77;;;3.47;;
9288;SDS011;4683;50.864;12.086;2022-07-06T03:26:15;4.60;;;3.97;;
9288;SDS011;4683;50.864;12.086;2022-07-06T03:28:44;3.97;;;3.57;;
9288;SDS011;4683;50.864;12.086;2022-07-06T03:31:13;4.23;;;3.50;;
9288;SDS011;4683;50.864;12.086;2022-07-06T03:33:43;4.23;;;3.53;;
9288;SDS011;4683;50.864;12.086;2022-07-06T07:58:44;4.60;;;2.73;;
9288;SDS011;4683;50.864;12.086;2022-07-06T08:01:14;5.40;;;2.30;;
9288;SDS011;4683;50.864;12.086;2022-07-06T08:03:46;6.03;;;2.50;;
9288;SDS011;4683;50.864;12.086;2022-07-06T08:06:41;4.87;;;2.53;;
9288;SDS011;4683;50.864;12.086;2022-07-06T08:09:09;5.67;;;2.30;;
9288;SDS011;4683;50.864;12.086;2022-07-06T08:12:09;4.23;;;2.67;;
9288;SDS011;4683;50.864;12.086;2022-07-06T08:14:42;5.20;;;2.93;;
9288;SDS011;4683;50.864;12.086;2022-07-06T08:17:10;3.13;;;2.40;;
9288;SDS011;4683;50.864;12.086;2022-07-06T08:19:45;3.23;;;2.40;;
9288;SDS011;4683;50.864;12.086;2022-07-06T08:22:13;2.90;;;2.70;;
9288;SDS011;4683;50.864;12.086;2022-07-06T08:24:42;4.53;;;2.20;;
9288;SDS011;4683;50.864;12.086;2022-07-06T08:27:10;4.17;;;2.50;;
9288;SDS011;4683;50.864;12.086;2022-07-06T08:29:38;3.27;;;2.30;;
9288;SDS011;4683;50.864;12.086;2022-07-06T08:32:09;3.87;;;2.23;;
9288;SDS011;4683;50.864;12.086;2022-07-06T10:43:57;3.87;;;2.10;;
9288;SDS011;4683;50.864;12.086;2022-07-06T10:46:41;4.30;;;2.47;;
9288;SDS011;4683;50.864;12.086;2022-07-06T10:49:19;2.90;;;2.33;;
9288;SDS011;4683;50.864;12.086;2022-07-06T10:51:49;3.50;;;2.30;;
9288;SDS011;4683;50.864;12.086;2022-07-06T11:55:00;4.20;;;2.10;;
9288;SDS011;4683;50.864;12.086;2022-07-06T11:57:28;3.43;;;1.90;;
9288;SDS011;4683;50.864;12.086;2022-07-06T12:00:02;2.37;;;1.67;;
9288;SDS011;4683;50.864;12.086;2022-07-06T12:02:35;3.97;;;2.03;;
9288;SDS011;4683;50.864;12.086;2022-07-06T12:05:04;3.37;;;1.47;;
9288;SDS011;4683;50.864;12.086;2022-07-06T12:07:36;6.27;;;1.67;;
9288;SDS011;4683;50.864;12.086;2022-07-06T12:10:05;1.73;;;1.60;;
9288;SDS011;4683;50.864;12.086;2022-07-06T12:12:37;2.00;;;1.60;;
9288;SDS011;4683;50.864;12.086;2022-07-06T12:15:08;2.07;;;1.43;;
9288;SDS011;4683;50.864;12.086;2022-07-06T12:17:36;2.07;;;1.67;;
9288;SDS011;4683;50.864;12.086;2022-07-06T12:20:10;2.30;;;1.70;;
9288;SDS011;4683;50.864;12.086;2022-07-06T19:11:26;3.17;;;1.00;;
9288;SDS011;4683;50.864;12.086;2022-07-06T19:13:55;2.60;;;1.20;;
9288;SDS011;4683;50.864;12.086;2022-07-06T19:16:24;2.43;;;1.27;;
9288;SDS011;4683;50.864;12.086;2022-07-06T19:18:54;1.33;;;1.00;;
9288;SDS011;4683;50.864;12.086;2022-07-06T19:21:23;2.37;;;1.50;;
9288;SDS011;4683;50.864;12.086;2022-07-06T19:23:51;1.63;;;1.43;;
9288;SDS011;4683;50.864;12.086;2022-07-06T19:58:49;4.57;;;3.10;;
9288;SDS011;4683;50.864;12.086;2022-07-06T20:01:18;2.60;;;1.73;;
9288;SDS011;4683;50.864;12.086;2022-07-06T20:03:47;3.50;;;2.00;;
9288;SDS011;4683;50.864;12.086;2022-07-06T20:06:17;1.50;;;0.93;;
9288;SDS011;4683;50.864;12.086;2022-07-06T20:08:45;3.13;;;1.70;;
9288;SDS011;4683;50.864;12.086;2022-07-06T20:11:13;2.20;;;1.13;;
9288;SDS011;4683;50.864;12.086;2022-07-06T22:59:03;3.03;;;2.00;;
9288;SDS011;4683;50.864;12.086;2022-07-06T23:01:32;4.10;;;2.10;;
9288;SDS011;4683;50.864;12.086;2022-07-06T23:04:01;2.93;;;2.03;;
9288;SDS011;4683;50.864;12.086;2022-07-06T23:06:30;3.73;;;1.47;;
9288;SDS011;4683;50.864;12.086;2022-07-06T23:08:58;2.90;;;2.33;;
9288;SDS011;4683;50.864;12.086;2022-07-06T23:11:26;4.73;;;2.20;;
